createdAt,value
2019-04-16T00:00:33.870Z,6.10
2019-04-16T00:03:07.603Z,6.10
2019-04-16T00:05:48.937Z,6.00
2019-04-16T00:08:27.609Z,5.90
2019-04-16T00:11:07.204Z,6.20
2019-04-16T00:13:45.702Z,6.20
2019-04-16T00:16:19.515Z,6.20
2019-04-16T00:18:57.865Z,6.10
2019-04-16T00:21:33.270Z,6.20
2019-04-16T00:24:11.625Z,6.10
2019-04-16T00:26:45.329Z,6.20
2019-04-16T00:29:19.127Z,6.20
2019-04-16T00:31:54.617Z,6.10
2019-04-16T00:34:28.269Z,6.20
2019-04-16T00:37:01.981Z,6.20
2019-04-16T00:39:35.644Z,6.30
2019-04-16T00:42:09.288Z,6.30
2019-04-16T00:44:42.995Z,6.30
2019-04-16T00:47:16.663Z,6.30
2019-04-16T00:49:50.350Z,6.30
2019-04-16T00:52:24.013Z,6.20
2019-04-16T00:54:57.699Z,6.30
2019-04-16T00:57:31.440Z,6.40
2019-04-16T01:00:07.110Z,6.30
2019-04-16T01:02:40.919Z,6.30
2019-04-16T01:05:14.693Z,6.20
2019-04-16T01:07:48.417Z,6.20
2019-04-16T01:10:22.185Z,6.20
2019-04-16T01:12:55.915Z,6.20
2019-04-16T01:15:32.016Z,6.20
2019-04-16T01:18:08.024Z,6.10
2019-04-16T01:20:40.404Z,6.20
2019-04-16T01:23:17.808Z,6.30
2019-04-16T01:25:55.353Z,6.20
2019-04-16T01:28:36.802Z,6.10
2019-04-16T01:31:28.296Z,6.00
2019-04-16T01:34:18.771Z,6.00
2019-04-16T01:36:54.893Z,5.90
2019-04-16T01:39:30.364Z,5.90
2019-04-16T01:42:04.100Z,6.00
2019-04-16T01:44:37.793Z,5.90
2019-04-16T01:47:11.519Z,5.90
2019-04-16T01:49:45.229Z,5.70
2019-04-16T01:52:19.669Z,5.70
2019-04-16T01:54:54.811Z,5.60
2019-04-16T01:57:30.709Z,5.70
2019-04-16T02:00:08.140Z,5.70
2019-04-16T02:02:43.492Z,5.60
2019-04-16T02:05:17.360Z,5.50
2019-04-16T02:07:51.017Z,5.40
2019-04-16T02:10:24.793Z,5.40
2019-04-16T02:12:58.526Z,5.40
2019-04-16T02:15:32.319Z,5.40
2019-04-16T02:18:06.087Z,5.50
2019-04-16T02:20:39.760Z,5.50
2019-04-16T02:23:16.261Z,5.40
2019-04-16T02:25:51.369Z,5.20
2019-04-16T02:28:27.882Z,5.10
2019-04-16T02:30:59.476Z,5.10
2019-04-16T02:33:33.211Z,5.10
2019-04-16T02:36:06.994Z,5.10
2019-04-16T02:38:46.303Z,5.10
2019-04-16T02:41:16.181Z,5.10
2019-04-16T02:43:49.875Z,5.10
2019-04-16T02:46:27.473Z,5.10
2019-04-16T02:48:59.058Z,5.10
2019-04-16T02:51:41.188Z,5.00
2019-04-16T02:54:23.363Z,4.80
2019-04-16T02:57:01.464Z,4.60
2019-04-16T02:59:36.932Z,4.50
2019-04-16T03:02:28.412Z,4.40
2019-04-16T03:05:12.293Z,4.30
2019-04-16T03:07:46.042Z,4.20
2019-04-16T03:10:19.748Z,4.30
2019-04-16T03:12:53.475Z,4.20
2019-04-16T03:15:33.760Z,4.20
2019-04-16T03:18:07.247Z,4.10
2019-04-16T03:20:40.939Z,4.10
2019-04-16T03:23:14.522Z,4.10
2019-04-16T03:25:48.237Z,4.10
2019-04-16T03:28:23.533Z,4.10
2019-04-16T03:30:57.310Z,4.10
2019-04-16T03:33:31.055Z,4.10
2019-04-16T03:36:04.756Z,4.10
2019-04-16T03:38:41.927Z,4.20
2019-04-16T03:41:13.834Z,4.10
2019-04-16T03:43:47.462Z,4.10
2019-04-16T03:46:21.208Z,4.10
2019-04-16T03:48:56.083Z,4.10
2019-04-16T03:51:32.642Z,4.00
2019-04-16T03:54:05.959Z,4.00
2019-04-16T03:56:39.787Z,4.10
2019-04-16T03:59:13.493Z,4.00
2019-04-16T04:01:47.221Z,4.00
2019-04-16T04:04:20.928Z,3.90
2019-04-16T04:06:54.606Z,3.70
2019-04-16T04:09:28.295Z,3.50
2019-04-16T04:12:02.027Z,3.30
2019-04-16T04:14:35.648Z,3.20
2019-04-16T04:17:09.555Z,3.10
2019-04-16T04:19:43.499Z,3.20
2019-04-16T04:22:18.658Z,3.20
2019-04-16T04:24:52.399Z,3.20
2019-04-16T04:27:26.115Z,3.20
2019-04-16T04:29:59.862Z,3.20
2019-04-16T04:32:35.440Z,3.30
2019-04-16T04:35:09.190Z,3.30
2019-04-16T04:37:42.954Z,3.30
2019-04-16T04:40:17.542Z,3.30
2019-04-16T04:42:51.389Z,3.30
2019-04-16T04:45:25.287Z,3.30
2019-04-16T04:47:58.956Z,3.30
2019-04-16T04:50:35.286Z,3.40
2019-04-16T04:53:08.398Z,3.30
2019-04-16T04:55:42.237Z,3.40
2019-04-16T04:58:15.986Z,3.50
2019-04-16T05:00:49.686Z,3.60
2019-04-16T05:03:41.521Z,3.70
2019-04-16T05:06:26.730Z,3.90
2019-04-16T05:09:00.470Z,4.00
2019-04-16T05:11:33.235Z,4.20
2019-04-16T05:14:06.897Z,4.20
2019-04-16T05:16:40.519Z,4.30
2019-04-16T05:19:15.505Z,4.40
2019-04-16T05:21:50.056Z,4.60
2019-04-16T05:24:28.850Z,4.70
2019-04-16T05:26:59.948Z,4.70
2019-04-16T05:29:33.609Z,4.80
2019-04-16T05:32:07.359Z,4.90
2019-04-16T05:34:41.097Z,5.10
2019-04-16T05:37:16.658Z,5.20
2019-04-16T05:39:50.172Z,5.40
2019-04-16T05:42:25.923Z,5.50
2019-04-16T05:44:59.205Z,5.60
2019-04-16T05:47:32.905Z,5.80
2019-04-16T05:50:07.050Z,5.90
2019-04-16T05:52:40.752Z,6.00
2019-04-16T05:55:32.269Z,6.30
2019-04-16T05:58:06.003Z,6.50
2019-04-16T06:00:42.317Z,6.80
2019-04-16T06:03:20.604Z,7.10
2019-04-16T06:05:51.645Z,7.40
2019-04-16T06:08:25.280Z,7.50
2019-04-16T06:10:59.040Z,7.80
2019-04-16T06:13:37.403Z,7.90
2019-04-16T06:16:30.902Z,7.80
2019-04-16T06:19:20.116Z,7.90
2019-04-16T06:22:01.406Z,7.90
2019-04-16T06:24:36.719Z,8.00
2019-04-16T06:27:12.088Z,8.20
2019-04-16T06:29:53.322Z,8.20
2019-04-16T06:32:34.471Z,8.30
2019-04-16T06:35:16.074Z,8.60
2019-04-16T06:37:51.484Z,8.60
2019-04-16T06:40:42.732Z,8.70
2019-04-16T06:43:18.043Z,8.80
2019-04-16T06:46:09.869Z,8.90
2019-04-16T06:48:51.002Z,9.10
2019-04-16T06:51:26.347Z,9.20
2019-04-16T06:54:17.811Z,9.30
2019-04-16T06:57:09.657Z,9.40
2019-04-16T06:59:47.585Z,9.50
2019-04-16T07:02:25.544Z,9.90
2019-04-16T07:05:06.685Z,10.10
2019-04-16T07:07:46.822Z,10.30
2019-04-16T07:10:21.978Z,10.50
2019-04-16T07:12:55.804Z,10.70
2019-04-16T07:15:29.667Z,10.60
2019-04-16T07:18:05.582Z,10.70
2019-04-16T07:20:45.850Z,10.90
2019-04-16T07:23:14.334Z,11.20
2019-04-16T07:25:48.418Z,11.20
2019-04-16T07:28:36.007Z,11.60
2019-04-16T07:31:32.853Z,12.00
2019-04-16T07:34:12.449Z,12.30
2019-04-16T07:37:03.147Z,12.50
2019-04-16T07:39:53.959Z,12.50
2019-04-16T07:42:51.720Z,12.70
2019-04-16T07:45:26.886Z,12.80
2019-04-16T07:48:08.222Z,13.00
2019-04-16T07:50:46.247Z,13.20
2019-04-16T07:53:36.887Z,13.50
2019-04-16T07:56:12.233Z,13.70
2019-04-16T07:58:45.904Z,13.80
2019-04-16T08:01:19.716Z,13.90
2019-04-16T08:03:53.423Z,14.10
2019-04-16T08:06:27.165Z,14.30
2019-04-16T08:09:00.877Z,14.30
2019-04-16T08:11:34.633Z,14.30
2019-04-16T08:14:09.792Z,14.30
2019-04-16T08:16:47.747Z,14.40
2019-04-16T08:19:19.039Z,14.50
2019-04-16T08:21:52.733Z,14.40
2019-04-16T08:24:28.051Z,14.70
2019-04-16T08:27:01.767Z,14.70
2019-04-16T08:29:35.425Z,14.60
2019-04-16T08:32:09.183Z,14.70
2019-04-16T08:34:42.857Z,15.00
2019-04-16T08:37:16.499Z,15.10
2019-04-16T08:39:50.229Z,15.20
2019-04-16T08:42:25.225Z,14.80
2019-04-16T08:44:59.340Z,14.80
2019-04-16T08:47:33.093Z,14.80
2019-04-16T08:50:07.292Z,15.10
2019-04-16T08:52:41.865Z,15.40
2019-04-16T08:55:16.143Z,15.40
2019-04-16T08:57:49.811Z,15.50
2019-04-16T09:00:23.543Z,15.60
2019-04-16T09:02:58.694Z,15.90
2019-04-16T09:05:32.936Z,15.70
2019-04-16T09:08:12.873Z,15.70
2019-04-16T09:10:44.792Z,15.80
2019-04-16T09:13:23.013Z,15.70
2019-04-16T09:15:56.774Z,16.00
2019-04-16T09:18:37.622Z,16.50
2019-04-16T09:21:11.683Z,16.40
2019-04-16T09:23:47.137Z,16.30
2019-04-16T09:26:23.609Z,16.30
2019-04-16T09:29:10.355Z,16.70
2019-04-16T09:31:55.336Z,17.20
2019-04-16T09:34:47.502Z,17.20
2019-04-16T09:37:35.946Z,17.00
2019-04-16T09:40:17.591Z,16.80
2019-04-16T09:42:46.907Z,16.50
2019-04-16T09:45:20.642Z,16.50
2019-04-16T09:47:54.290Z,16.60
2019-04-16T09:50:28.037Z,17.10
2019-04-16T09:53:02.159Z,17.60
2019-04-16T09:55:35.912Z,18.00
2019-04-16T09:58:11.183Z,17.90
2019-04-16T10:00:49.483Z,17.90
2019-04-16T10:03:28.517Z,17.80
2019-04-16T10:06:05.326Z,17.40
2019-04-16T10:08:38.157Z,17.70
2019-04-16T10:11:11.958Z,18.20
2019-04-16T10:13:45.602Z,18.10
2019-04-16T10:16:21.051Z,18.30
2019-04-16T10:18:54.984Z,18.30
2019-04-16T10:21:29.312Z,18.30
2019-04-16T10:24:07.368Z,18.20
2019-04-16T10:26:41.142Z,18.10
2019-04-16T10:29:17.175Z,18.10
2019-04-16T10:31:51.413Z,18.30
2019-04-16T10:34:28.075Z,18.20
2019-04-16T10:37:02.742Z,18.10
2019-04-16T10:39:38.045Z,17.60
2019-04-16T10:42:19.242Z,17.60
2019-04-16T10:44:54.602Z,18.30
2019-04-16T10:47:29.920Z,18.00
2019-04-16T10:50:15.092Z,17.50
2019-04-16T10:53:05.752Z,17.80
2019-04-16T10:55:57.605Z,17.90
2019-04-16T10:58:49.380Z,17.70
2019-04-16T11:01:34.795Z,17.30
2019-04-16T11:04:10.767Z,17.70
2019-04-16T11:06:46.137Z,18.20
2019-04-16T11:09:19.886Z,18.30
2019-04-16T11:11:53.605Z,18.20
2019-04-16T11:14:27.344Z,18.30
2019-04-16T11:17:01.287Z,18.00
2019-04-16T11:19:35.043Z,18.00
2019-04-16T11:22:08.770Z,17.80
2019-04-16T11:24:42.487Z,18.00
2019-04-16T11:27:16.208Z,17.60
2019-04-16T11:29:49.836Z,17.60
2019-04-16T11:32:25.146Z,17.70
2019-04-16T11:34:58.853Z,17.80
2019-04-16T11:37:36.094Z,18.10
2019-04-16T11:40:08.341Z,18.30
2019-04-16T11:42:42.180Z,18.70
2019-04-16T11:45:16.225Z,18.20
2019-04-16T11:47:49.928Z,17.70
2019-04-16T11:50:23.686Z,17.60
2019-04-16T11:52:58.682Z,18.20
2019-04-16T11:55:32.591Z,18.20
2019-04-16T11:58:07.955Z,18.30
2019-04-16T12:00:49.399Z,18.10
2019-04-16T12:03:27.431Z,18.30
2019-04-16T12:06:27.761Z,18.30
2019-04-16T12:09:04.759Z,18.40
2019-04-16T12:11:40.121Z,18.20
2019-04-16T12:14:29.618Z,18.00
2019-04-16T12:16:55.502Z,18.10
2019-04-16T12:19:45.777Z,18.10
2019-04-16T12:22:32.935Z,18.20
2019-04-16T12:25:18.120Z,17.60
2019-04-16T12:27:53.498Z,17.20
2019-04-16T12:30:40.854Z,17.20
2019-04-16T12:33:34.459Z,17.30
2019-04-16T12:36:14.393Z,17.40
2019-04-16T12:38:58.624Z,17.50
2019-04-16T12:41:50.804Z,17.60
2019-04-16T12:44:26.761Z,17.40
2019-04-16T12:47:04.940Z,17.50
2019-04-16T12:49:56.617Z,17.80
2019-04-16T12:52:37.841Z,17.70
2019-04-16T12:55:13.157Z,17.30
2019-04-16T12:57:50.937Z,17.70
2019-04-16T13:00:42.692Z,17.60
2019-04-16T13:03:33.030Z,17.30
2019-04-16T13:06:10.851Z,17.50
2019-04-16T13:08:55.324Z,17.70
2019-04-16T13:11:36.799Z,18.10
2019-04-16T13:14:12.203Z,17.60
2019-04-16T13:16:47.485Z,17.60
2019-04-16T13:19:41.158Z,17.80
2019-04-16T13:22:22.278Z,18.00
2019-04-16T13:24:57.604Z,17.70
2019-04-16T13:27:32.990Z,17.90
2019-04-16T13:30:10.765Z,17.80
2019-04-16T13:32:44.516Z,17.80
2019-04-16T13:35:18.155Z,17.80
2019-04-16T13:37:51.758Z,18.00
2019-04-16T13:40:25.467Z,17.90
2019-04-16T13:43:01.556Z,18.00
2019-04-16T13:45:36.312Z,18.20
2019-04-16T13:48:16.619Z,18.20
2019-04-16T13:50:48.684Z,18.10
2019-04-16T13:53:28.650Z,17.90
2019-04-16T13:56:18.670Z,17.50
2019-04-16T13:59:06.084Z,17.50
2019-04-16T14:01:46.048Z,17.70
2019-04-16T14:04:19.959Z,17.50
2019-04-16T14:06:53.631Z,17.20
2019-04-16T14:09:27.337Z,17.00
2019-04-16T14:12:01.059Z,16.90
2019-04-16T14:14:34.796Z,16.60
2019-04-16T14:17:10.896Z,16.20
2019-04-16T14:19:43.935Z,15.80
2019-04-16T14:22:21.643Z,15.70
2019-04-16T14:24:52.992Z,15.70
2019-04-16T14:27:26.747Z,15.70
2019-04-16T14:30:00.424Z,15.60
2019-04-16T14:32:34.055Z,15.20
2019-04-16T14:35:09.448Z,15.10
2019-04-16T14:37:43.249Z,15.00
2019-04-16T14:40:21.469Z,15.10
2019-04-16T14:42:57.567Z,15.00
2019-04-16T14:45:53.616Z,15.00
2019-04-16T14:48:11.415Z,15.00
2019-04-16T14:50:45.552Z,14.90
2019-04-16T14:53:20.855Z,14.80
2019-04-16T14:56:00.456Z,14.70
2019-04-16T14:58:36.125Z,14.80
2019-04-16T15:01:20.533Z,14.80
2019-04-16T15:04:01.746Z,14.70
2019-04-16T15:06:52.933Z,14.70
2019-04-16T15:09:34.814Z,14.70
2019-04-16T15:12:26.293Z,14.60
2019-04-16T15:15:01.700Z,14.60
2019-04-16T15:17:37.025Z,14.40
2019-04-16T15:20:24.965Z,14.30
2019-04-16T15:23:15.681Z,14.20
2019-04-16T15:25:51.073Z,14.20
2019-04-16T15:28:32.480Z,14.10
2019-04-16T15:31:07.862Z,14.10
2019-04-16T15:33:43.138Z,14.10
2019-04-16T15:36:19.625Z,14.00
2019-04-16T15:39:04.433Z,14.00
2019-04-16T15:41:56.380Z,14.10
2019-04-16T15:44:34.159Z,14.00
2019-04-16T15:47:13.947Z,13.80
2019-04-16T15:49:49.993Z,13.70
2019-04-16T15:52:45.951Z,13.60
2019-04-16T15:55:35.822Z,13.60
2019-04-16T15:58:17.225Z,13.70
2019-04-16T16:01:10.867Z,13.60
2019-04-16T16:04:01.246Z,13.60
2019-04-16T16:06:36.588Z,13.60
2019-04-16T16:09:20.765Z,13.60
2019-04-16T16:12:01.881Z,13.60
2019-04-16T16:14:38.706Z,13.60
2019-04-16T16:17:10.974Z,13.50
2019-04-16T16:19:44.738Z,13.40
2019-04-16T16:22:18.608Z,13.40
2019-04-16T16:24:52.276Z,13.30
2019-04-16T16:27:26.009Z,13.30
2019-04-16T16:29:59.645Z,13.30
2019-04-16T16:32:33.380Z,13.30
2019-04-16T16:35:07.333Z,13.20
2019-04-16T16:37:41.055Z,13.20
2019-04-16T16:40:15.070Z,13.20
2019-04-16T16:42:49.846Z,13.20
2019-04-16T16:45:25.234Z,13.10
2019-04-16T16:47:58.866Z,13.10
2019-04-16T16:50:32.601Z,13.10
2019-04-16T16:53:14.203Z,13.00
2019-04-16T16:55:49.619Z,12.90
2019-04-16T16:58:27.740Z,12.80
2019-04-16T17:01:13.866Z,12.80
2019-04-16T17:03:57.649Z,12.70
2019-04-16T17:06:31.396Z,12.60
2019-04-16T17:09:06.571Z,12.60
2019-04-16T17:11:43.205Z,12.50
2019-04-16T17:14:15.668Z,12.50
2019-04-16T17:16:49.420Z,12.40
2019-04-16T17:19:23.140Z,12.30
2019-04-16T17:21:57.296Z,12.20
2019-04-16T17:24:31.069Z,12.20
2019-04-16T17:27:05.272Z,12.10
2019-04-16T17:29:38.842Z,12.10
2019-04-16T17:32:12.647Z,11.90
2019-04-16T17:34:46.309Z,11.80
2019-04-16T17:37:21.355Z,11.90
2019-04-16T17:39:57.054Z,11.80
2019-04-16T17:42:37.695Z,11.70
2019-04-16T17:45:18.388Z,11.50
2019-04-16T17:48:08.764Z,11.50
2019-04-16T17:50:44.049Z,11.40
2019-04-16T17:53:22.416Z,11.30
2019-04-16T17:55:57.809Z,11.10
2019-04-16T17:58:36.418Z,10.90
2019-04-16T18:01:28.132Z,10.70
2019-04-16T18:04:11.488Z,10.60
2019-04-16T18:07:01.253Z,10.40
2019-04-16T18:09:36.632Z,10.30
2019-04-16T18:12:16.928Z,10.20
2019-04-16T18:15:08.949Z,10.10
2019-04-16T18:17:47.133Z,10.20
2019-04-16T18:20:30.328Z,10.20
2019-04-16T18:23:14.653Z,10.10
2019-04-16T18:25:57.677Z,10.00
2019-04-16T18:28:49.297Z,10.00
2019-04-16T18:31:33.776Z,9.90
2019-04-16T18:34:12.244Z,9.80
2019-04-16T18:36:47.612Z,9.90
2019-04-16T18:39:26.051Z,9.80
2019-04-16T18:42:10.657Z,9.60
2019-04-16T18:44:56.179Z,9.50
2019-04-16T18:47:40.853Z,9.70
2019-04-16T18:50:22.096Z,9.70
2019-04-16T18:52:54.484Z,9.70
2019-04-16T18:55:28.125Z,9.80
2019-04-16T18:58:01.874Z,9.80
2019-04-16T19:00:41.335Z,9.80
2019-04-16T19:03:15.928Z,9.80
2019-04-16T19:05:49.748Z,9.70
2019-04-16T19:08:23.625Z,9.60
2019-04-16T19:10:57.400Z,9.60
2019-04-16T19:13:31.145Z,9.50
2019-04-16T19:16:05.005Z,9.50
2019-04-16T19:18:38.959Z,9.60
2019-04-16T19:21:12.705Z,9.60
2019-04-16T19:23:46.558Z,9.50
2019-04-16T19:26:20.384Z,9.50
2019-04-16T19:28:54.155Z,9.50
2019-04-16T19:31:27.981Z,9.40
2019-04-16T19:34:01.770Z,9.40
2019-04-16T19:36:35.515Z,9.30
2019-04-16T19:39:13.792Z,9.20
2019-04-16T19:41:44.560Z,9.30
2019-04-16T19:44:18.288Z,9.40
2019-04-16T19:46:53.930Z,9.40
2019-04-16T19:49:27.417Z,9.40
2019-04-16T19:52:01.095Z,9.30
2019-04-16T19:54:34.835Z,9.40
2019-04-16T19:57:10.311Z,9.40
2019-04-16T19:59:46.601Z,9.40
2019-04-16T20:02:19.458Z,9.50
2019-04-16T20:04:53.132Z,9.50
2019-04-16T20:07:32.586Z,9.60
2019-04-16T20:10:02.973Z,9.60
2019-04-16T20:12:36.699Z,9.60
2019-04-16T20:15:10.447Z,9.50
2019-04-16T20:17:44.192Z,9.50
2019-04-16T20:20:17.897Z,9.50
2019-04-16T20:22:51.642Z,9.70
2019-04-16T20:25:25.377Z,9.70
2019-04-16T20:27:59.017Z,9.70
2019-04-16T20:30:32.827Z,9.70
2019-04-16T20:33:06.603Z,9.70
2019-04-16T20:35:40.333Z,9.70
2019-04-16T20:38:16.982Z,9.60
2019-04-16T20:40:49.623Z,9.50
2019-04-16T20:43:23.286Z,9.50
2019-04-16T20:45:57.318Z,9.40
2019-04-16T20:48:32.050Z,9.40
2019-04-16T20:51:06.341Z,9.40
2019-04-16T20:53:41.296Z,9.30
2019-04-16T20:56:20.090Z,9.30
2019-04-16T20:58:50.419Z,9.30
2019-04-16T21:01:33.779Z,9.30
2019-04-16T21:04:04.950Z,9.30
2019-04-16T21:06:34.746Z,9.20
2019-04-16T21:09:08.487Z,9.20
2019-04-16T21:11:42.184Z,9.20
2019-04-16T21:14:18.818Z,9.30
2019-04-16T21:16:51.212Z,9.30
2019-04-16T21:19:26.596Z,9.20
2019-04-16T21:22:01.709Z,9.20
2019-04-16T21:24:39.212Z,9.30
2019-04-16T21:27:11.430Z,9.20
2019-04-16T21:29:45.832Z,9.10
2019-04-16T21:32:23.884Z,9.10
2019-04-16T21:35:05.742Z,9.10
2019-04-16T21:37:39.027Z,9.00
2019-04-16T21:40:12.777Z,9.00
2019-04-16T21:42:46.405Z,8.90
2019-04-16T21:45:20.145Z,8.80
2019-04-16T21:47:55.088Z,8.80
2019-04-16T21:50:29.241Z,8.80
2019-04-16T21:53:02.950Z,8.90
2019-04-16T21:55:36.781Z,8.80
2019-04-16T21:58:10.538Z,8.70
2019-04-16T22:00:52.180Z,8.90
2019-04-16T22:03:27.480Z,8.90
2019-04-16T22:06:01.224Z,8.90
2019-04-16T22:08:34.929Z,8.90
2019-04-16T22:11:11.827Z,8.90
2019-04-16T22:13:44.119Z,8.80
2019-04-16T22:16:17.852Z,8.80
2019-04-16T22:18:51.601Z,8.70
2019-04-16T22:21:25.231Z,8.60
2019-04-16T22:23:58.895Z,8.70
2019-04-16T22:26:35.228Z,8.70
2019-04-16T22:29:08.058Z,8.70
2019-04-16T22:31:41.687Z,8.50
2019-04-16T22:34:15.350Z,8.40
2019-04-16T22:36:48.988Z,8.20
2019-04-16T22:39:27.496Z,8.20
2019-04-16T22:42:05.672Z,8.20
2019-04-16T22:44:46.859Z,8.20
2019-04-16T22:47:22.229Z,8.10
2019-04-16T22:50:12.892Z,8.00
2019-04-16T22:52:31.336Z,8.00
2019-04-16T22:55:06.278Z,8.00
2019-04-16T22:57:40.038Z,8.00
2019-04-16T23:00:18.148Z,8.10
2019-04-16T23:02:51.848Z,8.10
2019-04-16T23:05:27.741Z,8.00
2019-04-16T23:08:00.955Z,8.00
2019-04-16T23:10:34.694Z,8.00
2019-04-16T23:13:08.379Z,7.90
2019-04-16T23:15:42.745Z,8.00
2019-04-16T23:18:17.515Z,7.90
2019-04-16T23:20:52.013Z,8.00
2019-04-16T23:23:25.736Z,8.00
2019-04-16T23:26:00.855Z,8.00
2019-04-16T23:28:34.592Z,8.10
2019-04-16T23:31:08.409Z,8.10
2019-04-16T23:33:42.110Z,8.00
2019-04-16T23:36:16.677Z,8.00
2019-04-16T23:38:50.541Z,8.00
2019-04-16T23:41:24.392Z,8.00
2019-04-16T23:43:59.605Z,8.00
2019-04-16T23:46:51.580Z,8.00
2019-04-16T23:49:36.195Z,8.00
2019-04-16T23:52:17.545Z,8.10
2019-04-16T23:54:58.743Z,8.10
2019-04-16T23:57:53.631Z,8.00
